Thompson, Michigan
Current Conditions -  °F | °C
As of 10:15 PM on Thursday 18 Dec 2014 (Local Time) from KISQ Reporting Station
Clear Clear  
Wind Chill:   Ceiling: Unl
Heat Index: 16°   Visibility: 10mi
Dew Point: 15°   Wind: 5mph
Humidity: 95%   Direction: 340°NNW
Pressure: 30.25"   Gusts: NA
Location:  46.1571°N, 86.3397°W
Report Text: KISQ 190315Z AUTO 34004KT 10SM CLR M09/M09 A3025 RMK AO2 T10881095
Loading
Personal Weather Stations






























Interactive Weather Map New forecast layout! Learn more

10-Day Weather Forecast

Advertisements
Track Severe Weather on mobile